sensor_id;sensor_type;location;lat;lon;timestamp;temperature;humidity
10788;DHT22;5446;50.826;4.380;2022-09-09T00:02:22;14.90;99.90
10788;DHT22;5446;50.826;4.380;2022-09-09T00:04:59;15.00;99.90
10788;DHT22;5446;50.826;4.380;2022-09-09T00:07:49;15.00;99.90
10788;DHT22;5446;50.826;4.380;2022-09-09T00:10:30;15.00;99.90
10788;DHT22;5446;50.826;4.380;2022-09-09T00:13:18;15.00;99.90
10788;DHT22;5446;50.826;4.380;2022-09-09T00:19:00;14.90;99.90
10788;DHT22;5446;50.826;4.380;2022-09-09T00:21:38;14.90;99.90
10788;DHT22;5446;50.826;4.380;2022-09-09T00:24:45;14.90;99.90
10788;DHT22;5446;50.826;4.380;2022-09-09T00:27:33;14.90;99.90
10788;DHT22;5446;50.826;4.380;2022-09-09T00:32:47;14.90;99.90
10788;DHT22;5446;50.826;4.380;2022-09-09T00:35:24;14.90;99.90
10788;DHT22;5446;50.826;4.380;2022-09-09T00:37:54;14.90;99.90
10788;DHT22;5446;50.826;4.380;2022-09-09T00:40:38;15.00;99.90
10788;DHT22;5446;50.826;4.380;2022-09-09T00:54:27;15.10;99.90
10788;DHT22;5446;50.826;4.380;2022-09-09T00:57:09;15.10;99.90
10788;DHT22;5446;50.826;4.380;2022-09-09T01:02:16;15.10;99.90
10788;DHT22;5446;50.826;4.380;2022-09-09T01:04:43;15.10;99.90
10788;DHT22;5446;50.826;4.380;2022-09-09T01:07:19;15.10;99.90
10788;DHT22;5446;50.826;4.380;2022-09-09T01:09:51;15.10;99.90
10788;DHT22;5446;50.826;4.380;2022-09-09T01:12:33;15.10;99.90
10788;DHT22;5446;50.826;4.380;2022-09-09T01:15:18;15.10;99.90
10788;DHT22;5446;50.826;4.380;2022-09-09T01:20:13;15.20;99.90
10788;DHT22;5446;50.826;4.380;2022-09-09T01:27:48;15.10;99.90
10788;DHT22;5446;50.826;4.380;2022-09-09T01:30:17;15.10;99.90
10788;DHT22;5446;50.826;4.380;2022-09-09T01:32:46;15.10;99.90
10788;DHT22;5446;50.826;4.380;2022-09-09T01:37:57;15.10;99.90
10788;DHT22;5446;50.826;4.380;2022-09-09T01:40:24;15.00;99.90
10788;DHT22;5446;50.826;4.380;2022-09-09T01:42:51;15.00;99.90
10788;DHT22;5446;50.826;4.380;2022-09-09T01:45:17;15.00;99.90
10788;DHT22;5446;50.826;4.380;2022-09-09T01:47:44;15.00;99.90
10788;DHT22;5446;50.826;4.380;2022-09-09T01:50:13;15.00;99.90
10788;DHT22;5446;50.826;4.380;2022-09-09T01:52:40;15.00;99.90
10788;DHT22;5446;50.826;4.380;2022-09-09T01:55:06;15.10;99.90
10788;DHT22;5446;50.826;4.380;2022-09-09T02:00:21;15.10;99.90
10788;DHT22;5446;50.826;4.380;2022-09-09T02:03:08;15.10;99.90
10788;DHT22;5446;50.826;4.380;2022-09-09T02:05:40;15.00;99.90
10788;DHT22;5446;50.826;4.380;2022-09-09T02:08:10;15.10;99.90
10788;DHT22;5446;50.826;4.380;2022-09-09T02:13:21;15.10;99.90
10788;DHT22;5446;50.826;4.380;2022-09-09T02:15:56;15.10;99.90
10788;DHT22;5446;50.826;4.380;2022-09-09T02:18:38;15.10;99.90
10788;DHT22;5446;50.826;4.380;2022-09-09T02:21:06;15.10;99.90
10788;DHT22;5446;50.826;4.380;2022-09-09T02:23:34;15.10;99.90
10788;DHT22;5446;50.826;4.380;2022-09-09T02:26:00;15.10;99.90
10788;DHT22;5446;50.826;4.380;2022-09-09T02:28:29;15.10;99.90
10788;DHT22;5446;50.826;4.380;2022-09-09T02:30:56;15.10;99.90
10788;DHT22;5446;50.826;4.380;2022-09-09T02:33:27;15.10;99.90
10788;DHT22;5446;50.826;4.380;2022-09-09T02:35:54;15.20;99.90
10788;DHT22;5446;50.826;4.380;2022-09-09T02:38:25;15.10;99.90
10788;DHT22;5446;50.826;4.380;2022-09-09T02:40:51;15.10;99.90
10788;DHT22;5446;50.826;4.380;2022-09-09T02:43:17;15.20;99.90
10788;DHT22;5446;50.826;4.380;2022-09-09T02:49:07;15.20;99.90
10788;DHT22;5446;50.826;4.380;2022-09-09T02:57:19;15.10;99.90
10788;DHT22;5446;50.826;4.380;2022-09-09T02:59:46;15.10;99.90
10788;DHT22;5446;50.826;4.380;2022-09-09T03:02:12;15.10;99.90
10788;DHT22;5446;50.826;4.380;2022-09-09T03:04:39;15.10;99.90
10788;DHT22;5446;50.826;4.380;2022-09-09T03:07:05;15.10;99.90
10788;DHT22;5446;50.826;4.380;2022-09-09T03:09:31;15.10;99.90
10788;DHT22;5446;50.826;4.380;2022-09-09T03:11:58;15.10;99.90
10788;DHT22;5446;50.826;4.380;2022-09-09T03:14:24;15.10;99.90
10788;DHT22;5446;50.826;4.380;2022-09-09T03:16:54;15.20;99.90
10788;DHT22;5446;50.826;4.380;2022-09-09T03:19:20;15.10;99.90
10788;DHT22;5446;50.826;4.380;2022-09-09T03:21:46;15.10;99.90
10788;DHT22;5446;50.826;4.380;2022-09-09T03:24:13;15.10;99.90
10788;DHT22;5446;50.826;4.380;2022-09-09T03:26:40;15.10;99.90
10788;DHT22;5446;50.826;4.380;2022-09-09T03:29:06;15.00;99.90
10788;DHT22;5446;50.826;4.380;2022-09-09T03:31:35;15.10;99.90
10788;DHT22;5446;50.826;4.380;2022-09-09T03:34:01;15.00;99.90
10788;DHT22;5446;50.826;4.380;2022-09-09T03:36:28;15.00;99.90
10788;DHT22;5446;50.826;4.380;2022-09-09T03:38:54;15.00;99.90
10788;DHT22;5446;50.826;4.380;2022-09-09T03:41:23;15.00;99.90
10788;DHT22;5446;50.826;4.380;2022-09-09T03:43:53;15.00;99.90
10788;DHT22;5446;50.826;4.380;2022-09-09T03:46:20;15.00;99.90
10788;DHT22;5446;50.826;4.380;2022-09-09T03:48:46;15.00;99.90
10788;DHT22;5446;50.826;4.380;2022-09-09T03:51:12;15.00;99.90
10788;DHT22;5446;50.826;4.380;2022-09-09T03:53:38;15.00;99.90
10788;DHT22;5446;50.826;4.380;2022-09-09T03:56:05;15.00;99.90
10788;DHT22;5446;50.826;4.380;2022-09-09T03:58:36;15.00;99.90
10788;DHT22;5446;50.826;4.380;2022-09-09T04:01:07;15.00;99.90
10788;DHT22;5446;50.826;4.380;2022-09-09T04:03:38;15.00;99.90
10788;DHT22;5446;50.826;4.380;2022-09-09T04:06:06;15.10;99.90
10788;DHT22;5446;50.826;4.380;2022-09-09T04:08:33;15.10;99.90
10788;DHT22;5446;50.826;4.380;2022-09-09T04:10:59;15.10;99.90
10788;DHT22;5446;50.826;4.380;2022-09-09T04:13:30;15.10;99.90
10788;DHT22;5446;50.826;4.380;2022-09-09T04:15:58;15.20;99.90
10788;DHT22;5446;50.826;4.380;2022-09-09T04:18:25;15.20;99.90
10788;DHT22;5446;50.826;4.380;2022-09-09T04:20:52;15.10;99.90
10788;DHT22;5446;50.826;4.380;2022-09-09T04:23:19;15.10;99.90
10788;DHT22;5446;50.826;4.380;2022-09-09T04:25:47;15.10;99.90
10788;DHT22;5446;50.826;4.380;2022-09-09T04:28:14;15.10;99.90
10788;DHT22;5446;50.826;4.380;2022-09-09T04:30:41;15.10;99.90
10788;DHT22;5446;50.826;4.380;2022-09-09T04:33:08;15.00;99.90
10788;DHT22;5446;50.826;4.380;2022-09-09T04:35:36;15.00;99.90
10788;DHT22;5446;50.826;4.380;2022-09-09T04:38:02;15.00;99.90
10788;DHT22;5446;50.826;4.380;2022-09-09T04:40:29;14.90;99.90
10788;DHT22;5446;50.826;4.380;2022-09-09T04:42:57;14.90;99.90
10788;DHT22;5446;50.826;4.380;2022-09-09T04:45:23;15.00;99.90
10788;DHT22;5446;50.826;4.380;2022-09-09T04:47:49;14.90;99.90
10788;DHT22;5446;50.826;4.380;2022-09-09T04:50:14;14.90;99.90
10788;DHT22;5446;50.826;4.380;2022-09-09T04:52:41;14.90;99.90
10788;DHT22;5446;50.826;4.380;2022-09-09T04:55:07;14.90;99.90
10788;DHT22;5446;50.826;4.380;2022-09-09T04:57:34;14.90;99.90
10788;DHT22;5446;50.826;4.380;2022-09-09T05:00:00;14.90;99.90
10788;DHT22;5446;50.826;4.380;2022-09-09T05:02:26;15.00;99.90
10788;DHT22;5446;50.826;4.380;2022-09-09T05:04:52;15.00;99.90
10788;DHT22;5446;50.826;4.380;2022-09-09T05:07:18;15.00;99.90
10788;DHT22;5446;50.826;4.380;2022-09-09T05:09:44;15.00;99.90
10788;DHT22;5446;50.826;4.380;2022-09-09T05:12:10;15.00;99.90
10788;DHT22;5446;50.826;4.380;2022-09-09T05:14:36;15.10;99.90
10788;DHT22;5446;50.826;4.380;2022-09-09T05:17:04;15.10;99.90
10788;DHT22;5446;50.826;4.380;2022-09-09T05:19:30;15.20;99.90
10788;DHT22;5446;50.826;4.380;2022-09-09T05:21:55;15.20;99.90
10788;DHT22;5446;50.826;4.380;2022-09-09T05:24:22;15.30;99.90
10788;DHT22;5446;50.826;4.380;2022-09-09T05:26:48;15.30;99.90
10788;DHT22;5446;50.826;4.380;2022-09-09T05:29:14;15.40;99.90
10788;DHT22;5446;50.826;4.380;2022-09-09T05:31:40;15.50;99.90
10788;DHT22;5446;50.826;4.380;2022-09-09T05:34:06;15.60;99.90
10788;DHT22;5446;50.826;4.380;2022-09-09T05:36:32;15.60;99.90
10788;DHT22;5446;50.826;4.380;2022-09-09T05:38:58;15.60;99.90
10788;DHT22;5446;50.826;4.380;2022-09-09T05:41:23;15.70;99.90
10788;DHT22;5446;50.826;4.380;2022-09-09T05:43:49;15.70;99.90
10788;DHT22;5446;50.826;4.380;2022-09-09T05:46:18;15.70;99.90
10788;DHT22;5446;50.826;4.380;2022-09-09T05:48:46;15.70;99.90
10788;DHT22;5446;50.826;4.380;2022-09-09T05:51:14;15.70;99.90
10788;DHT22;5446;50.826;4.380;2022-09-09T05:53:43;15.70;99.90
10788;DHT22;5446;50.826;4.380;2022-09-09T05:56:24;15.70;99.90
10788;DHT22;5446;50.826;4.380;2022-09-09T05:58:54;15.70;99.90
10788;DHT22;5446;50.826;4.380;2022-09-09T06:01:25;15.70;99.90
10788;DHT22;5446;50.826;4.380;2022-09-09T06:03:54;15.70;99.90
10788;DHT22;5446;50.826;4.380;2022-09-09T06:06:23;15.70;99.90
10788;DHT22;5446;50.826;4.380;2022-09-09T06:08:53;15.80;99.90
10788;DHT22;5446;50.826;4.380;2022-09-09T06:11:20;15.90;99.90
10788;DHT22;5446;50.826;4.380;2022-09-09T06:13:46;15.90;99.90
10788;DHT22;5446;50.826;4.380;2022-09-09T06:16:15;15.90;99.90
10788;DHT22;5446;50.826;4.380;2022-09-09T06:18:41;16.00;99.90
10788;DHT22;5446;50.826;4.380;2022-09-09T06:21:11;16.00;99.90
10788;DHT22;5446;50.826;4.380;2022-09-09T06:23:39;16.00;99.90
10788;DHT22;5446;50.826;4.380;2022-09-09T06:28:33;16.00;99.90
10788;DHT22;5446;50.826;4.380;2022-09-09T06:31:05;16.00;99.90
10788;DHT22;5446;50.826;4.380;2022-09-09T06:33:39;16.00;99.90
10788;DHT22;5446;50.826;4.380;2022-09-09T06:36:10;16.10;99.90
10788;DHT22;5446;50.826;4.380;2022-09-09T06:38:36;16.20;99.90
10788;DHT22;5446;50.826;4.380;2022-09-09T06:41:02;16.20;99.90
10788;DHT22;5446;50.826;4.380;2022-09-09T06:43:28;16.20;99.90
10788;DHT22;5446;50.826;4.380;2022-09-09T06:48:19;16.20;99.90
10788;DHT22;5446;50.826;4.380;2022-09-09T06:50:45;16.20;99.90
10788;DHT22;5446;50.826;4.380;2022-09-09T06:53:11;16.30;99.90
10788;DHT22;5446;50.826;4.380;2022-09-09T06:55:37;16.30;99.90
10788;DHT22;5446;50.826;4.380;2022-09-09T06:58:08;16.30;99.90
10788;DHT22;5446;50.826;4.380;2022-09-09T07:00:33;16.40;99.90
10788;DHT22;5446;50.826;4.380;2022-09-09T07:02:59;16.40;99.90
10788;DHT22;5446;50.826;4.380;2022-09-09T07:05:25;16.50;99.90
10788;DHT22;5446;50.826;4.380;2022-09-09T07:07:51;16.50;99.90
10788;DHT22;5446;50.826;4.380;2022-09-09T07:10:17;16.60;99.90
10788;DHT22;5446;50.826;4.380;2022-09-09T07:12:43;16.70;99.90
10788;DHT22;5446;50.826;4.380;2022-09-09T07:15:09;16.60;99.90
10788;DHT22;5446;50.826;4.380;2022-09-09T07:17:35;16.70;99.90
10788;DHT22;5446;50.826;4.380;2022-09-09T07:20:01;16.70;99.90
10788;DHT22;5446;50.826;4.380;2022-09-09T07:22:29;16.70;99.90
10788;DHT22;5446;50.826;4.380;2022-09-09T07:24:54;16.80;99.90
10788;DHT22;5446;50.826;4.380;2022-09-09T07:27:20;16.80;99.90
10788;DHT22;5446;50.826;4.380;2022-09-09T07:29:46;16.70;99.90
10788;DHT22;5446;50.826;4.380;2022-09-09T07:32:12;16.70;99.90
10788;DHT22;5446;50.826;4.380;2022-09-09T07:34:37;16.70;99.90
10788;DHT22;5446;50.826;4.380;2022-09-09T07:37:03;16.70;99.90
10788;DHT22;5446;50.826;4.380;2022-09-09T07:39:29;16.60;99.90
10788;DHT22;5446;50.826;4.380;2022-09-09T07:41:54;16.60;99.90
10788;DHT22;5446;50.826;4.380;2022-09-09T07:44:23;16.50;99.90
10788;DHT22;5446;50.826;4.380;2022-09-09T07:46:50;16.50;99.90
10788;DHT22;5446;50.826;4.380;2022-09-09T07:49:16;16.50;99.90
10788;DHT22;5446;50.826;4.380;2022-09-09T07:51:45;16.40;99.90
10788;DHT22;5446;50.826;4.380;2022-09-09T07:54:13;16.40;99.90
10788;DHT22;5446;50.826;4.380;2022-09-09T07:56:40;16.40;99.90
10788;DHT22;5446;50.826;4.380;2022-09-09T07:59:06;16.40;99.90
10788;DHT22;5446;50.826;4.380;2022-09-09T08:01:52;16.40;99.90
10788;DHT22;5446;50.826;4.380;2022-09-09T08:04:22;16.40;99.90
10788;DHT22;5446;50.826;4.380;2022-09-09T08:06:56;16.50;99.90
10788;DHT22;5446;50.826;4.380;2022-09-09T08:09:23;16.70;99.90
10788;DHT22;5446;50.826;4.380;2022-09-09T08:11:55;16.80;99.90
10788;DHT22;5446;50.826;4.380;2022-09-09T08:14:22;16.90;99.90
10788;DHT22;5446;50.826;4.380;2022-09-09T08:16:49;17.10;99.90
10788;DHT22;5446;50.826;4.380;2022-09-09T08:19:15;17.30;99.90
10788;DHT22;5446;50.826;4.380;2022-09-09T08:21:42;17.30;99.90
10788;DHT22;5446;50.826;4.380;2022-09-09T08:24:10;17.40;99.90
10788;DHT22;5446;50.826;4.380;2022-09-09T08:26:41;17.30;99.90
10788;DHT22;5446;50.826;4.380;2022-09-09T08:29:08;17.30;99.90
10788;DHT22;5446;50.826;4.380;2022-09-09T08:34:06;17.30;99.90
10788;DHT22;5446;50.826;4.380;2022-09-09T08:36:40;17.40;99.90
10788;DHT22;5446;50.826;4.380;2022-09-09T08:39:08;17.30;99.90
10788;DHT22;5446;50.826;4.380;2022-09-09T08:58:30;17.00;99.90
10788;DHT22;5446;50.826;4.380;2022-09-09T09:09:44;17.20;99.90
10788;DHT22;5446;50.826;4.380;2022-09-09T09:12:22;17.20;99.90
10788;DHT22;5446;50.826;4.380;2022-09-09T09:14:49;17.10;99.90
10788;DHT22;5446;50.826;4.380;2022-09-09T09:17:24;17.00;99.90
10788;DHT22;5446;50.826;4.380;2022-09-09T09:19:50;17.00;99.90
10788;DHT22;5446;50.826;4.380;2022-09-09T09:29:55;16.80;99.90
10788;DHT22;5446;50.826;4.380;2022-09-09T09:32:24;16.90;99.90
10788;DHT22;5446;50.826;4.380;2022-09-09T09:34:54;16.80;99.90
10788;DHT22;5446;50.826;4.380;2022-09-09T09:37:32;16.80;99.90
10788;DHT22;5446;50.826;4.380;2022-09-09T09:40:14;16.70;99.90
10788;DHT22;5446;50.826;4.380;2022-09-09T09:42:53;16.70;99.90
10788;DHT22;5446;50.826;4.380;2022-09-09T09:45:42;16.70;99.90
10788;DHT22;5446;50.826;4.380;2022-09-09T09:48:11;16.80;99.90
10788;DHT22;5446;50.826;4.380;2022-09-09T09:51:01;16.80;99.90
10788;DHT22;5446;50.826;4.380;2022-09-09T09:53:30;17.00;99.90
10788;DHT22;5446;50.826;4.380;2022-09-09T09:56:02;17.00;99.90
10788;DHT22;5446;50.826;4.380;2022-09-09T09:58:31;17.00;99.90
10788;DHT22;5446;50.826;4.380;2022-09-09T10:01:00;17.00;99.90
10788;DHT22;5446;50.826;4.380;2022-09-09T10:03:31;17.00;99.90
10788;DHT22;5446;50.826;4.380;2022-09-09T10:05:57;17.10;99.90
10788;DHT22;5446;50.826;4.380;2022-09-09T10:08:27;17.00;99.90
10788;DHT22;5446;50.826;4.380;2022-09-09T10:19:13;17.00;99.90
10788;DHT22;5446;50.826;4.380;2022-09-09T10:35:34;17.20;99.90
10788;DHT22;5446;50.826;4.380;2022-09-09T10:38:41;17.40;99.90
10788;DHT22;5446;50.826;4.380;2022-09-09T10:41:18;17.40;99.90
10788;DHT22;5446;50.826;4.380;2022-09-09T10:44:01;17.60;99.90
10788;DHT22;5446;50.826;4.380;2022-09-09T10:54:58;17.80;99.90
10788;DHT22;5446;50.826;4.380;2022-09-09T10:57:47;18.00;99.90
10788;DHT22;5446;50.826;4.380;2022-09-09T11:00:20;18.20;99.90
10788;DHT22;5446;50.826;4.380;2022-09-09T11:03:04;18.20;99.90
10788;DHT22;5446;50.826;4.380;2022-09-09T11:05:38;18.30;99.90
10788;DHT22;5446;50.826;4.380;2022-09-09T11:08:25;18.30;99.90
10788;DHT22;5446;50.826;4.380;2022-09-09T11:11:17;18.50;99.90
10788;DHT22;5446;50.826;4.380;2022-09-09T11:13:55;18.50;99.90
10788;DHT22;5446;50.826;4.380;2022-09-09T11:16:40;18.40;99.90
10788;DHT22;5446;50.826;4.380;2022-09-09T11:19:35;18.50;99.90
10788;DHT22;5446;50.826;4.380;2022-09-09T11:22:37;18.60;99.90
10788;DHT22;5446;50.826;4.380;2022-09-09T11:25:15;18.60;99.90
10788;DHT22;5446;50.826;4.380;2022-09-09T11:30:32;18.50;99.90
10788;DHT22;5446;50.826;4.380;2022-09-09T11:41:40;18.60;99.90
10788;DHT22;5446;50.826;4.380;2022-09-09T11:44:18;18.50;99.90
10788;DHT22;5446;50.826;4.380;2022-09-09T11:46:49;18.50;99.90
10788;DHT22;5446;50.826;4.380;2022-09-09T11:49:42;18.70;99.90
10788;DHT22;5446;50.826;4.380;2022-09-09T11:52:36;18.70;99.90
10788;DHT22;5446;50.826;4.380;2022-09-09T11:55:10;18.70;99.90
10788;DHT22;5446;50.826;4.380;2022-09-09T11:57:38;18.70;99.90
10788;DHT22;5446;50.826;4.380;2022-09-09T12:00:05;18.80;99.90
10788;DHT22;5446;50.826;4.380;2022-09-09T12:02:33;18.80;99.90
10788;DHT22;5446;50.826;4.380;2022-09-09T12:07:37;18.70;99.90
10788;DHT22;5446;50.826;4.380;2022-09-09T12:12:37;18.50;99.90
10788;DHT22;5446;50.826;4.380;2022-09-09T12:17:52;18.40;99.90
10788;DHT22;5446;50.826;4.380;2022-09-09T12:29:47;18.30;99.90
10788;DHT22;5446;50.826;4.380;2022-09-09T12:32:25;18.40;99.90
10788;DHT22;5446;50.826;4.380;2022-09-09T12:35:03;18.70;99.90
10788;DHT22;5446;50.826;4.380;2022-09-09T12:37:38;18.90;99.90
10788;DHT22;5446;50.826;4.380;2022-09-09T12:42:51;19.00;99.90
10788;DHT22;5446;50.826;4.380;2022-09-09T12:45:18;19.00;99.90
10788;DHT22;5446;50.826;4.380;2022-09-09T12:47:51;19.10;99.90
10788;DHT22;5446;50.826;4.380;2022-09-09T12:50:21;19.30;99.90
10788;DHT22;5446;50.826;4.380;2022-09-09T12:52:49;19.50;99.90
10788;DHT22;5446;50.826;4.380;2022-09-09T12:55:24;19.40;99.90
10788;DHT22;5446;50.826;4.380;2022-09-09T12:57:50;19.40;99.90
10788;DHT22;5446;50.826;4.380;2022-09-09T13:00:22;19.50;99.90
10788;DHT22;5446;50.826;4.380;2022-09-09T13:02:56;19.50;99.90
10788;DHT22;5446;50.826;4.380;2022-09-09T13:05:38;19.40;99.90
10788;DHT22;5446;50.826;4.380;2022-09-09T13:08:09;19.50;99.90
10788;DHT22;5446;50.826;4.380;2022-09-09T13:11:03;19.50;99.90
10788;DHT22;5446;50.826;4.380;2022-09-09T13:13:37;19.50;99.90
10788;DHT22;5446;50.826;4.380;2022-09-09T13:16:04;19.50;99.90
10788;DHT22;5446;50.826;4.380;2022-09-09T13:18:34;19.40;99.90
10788;DHT22;5446;50.826;4.380;2022-09-09T13:21:00;19.60;99.90
10788;DHT22;5446;50.826;4.380;2022-09-09T13:23:29;19.50;99.90
10788;DHT22;5446;50.826;4.380;2022-09-09T13:26:18;19.50;99.90
10788;DHT22;5446;50.826;4.380;2022-09-09T13:28:47;19.40;99.90
10788;DHT22;5446;50.826;4.380;2022-09-09T13:31:35;19.60;99.90
10788;DHT22;5446;50.826;4.380;2022-09-09T13:34:14;19.80;99.90
10788;DHT22;5446;50.826;4.380;2022-09-09T13:36:54;20.20;99.90
10788;DHT22;5446;50.826;4.380;2022-09-09T13:39:21;20.10;99.90
10788;DHT22;5446;50.826;4.380;2022-09-09T13:41:47;19.90;99.90
10788;DHT22;5446;50.826;4.380;2022-09-09T13:44:39;20.10;99.90
10788;DHT22;5446;50.826;4.380;2022-09-09T13:47:33;20.30;99.90
10788;DHT22;5446;50.826;4.380;2022-09-09T13:50:27;20.20;99.90
10788;DHT22;5446;50.826;4.380;2022-09-09T13:52:54;20.20;99.90
10788;DHT22;5446;50.826;4.380;2022-09-09T13:55:25;20.30;99.90
10788;DHT22;5446;50.826;4.380;2022-09-09T13:58:14;20.40;99.90
10788;DHT22;5446;50.826;4.380;2022-09-09T14:00:40;20.30;99.90
10788;DHT22;5446;50.826;4.380;2022-09-09T14:03:06;20.30;99.90
10788;DHT22;5446;50.826;4.380;2022-09-09T14:05:33;20.40;99.90
10788;DHT22;5446;50.826;4.380;2022-09-09T14:07:59;20.60;99.90
10788;DHT22;5446;50.826;4.380;2022-09-09T14:10:28;20.50;99.90
10788;DHT22;5446;50.826;4.380;2022-09-09T14:12:53;20.50;99.90
10788;DHT22;5446;50.826;4.380;2022-09-09T14:15:19;20.50;99.90
10788;DHT22;5446;50.826;4.380;2022-09-09T14:17:45;20.20;99.90
10788;DHT22;5446;50.826;4.380;2022-09-09T14:20:11;20.20;99.90
10788;DHT22;5446;50.826;4.380;2022-09-09T14:22:37;20.20;99.90
10788;DHT22;5446;50.826;4.380;2022-09-09T14:25:05;20.20;99.90
10788;DHT22;5446;50.826;4.380;2022-09-09T14:27:31;20.00;99.90
10788;DHT22;5446;50.826;4.380;2022-09-09T14:29:58;19.90;99.90
10788;DHT22;5446;50.826;4.380;2022-09-09T14:32:25;19.80;99.90
10788;DHT22;5446;50.826;4.380;2022-09-09T14:34:51;19.90;99.90
10788;DHT22;5446;50.826;4.380;2022-09-09T14:37:17;20.10;99.90
10788;DHT22;5446;50.826;4.380;2022-09-09T14:39:43;20.30;99.90
10788;DHT22;5446;50.826;4.380;2022-09-09T14:42:10;20.30;99.90
10788;DHT22;5446;50.826;4.380;2022-09-09T14:44:37;20.20;99.90
10788;DHT22;5446;50.826;4.380;2022-09-09T14:47:07;20.20;99.90
10788;DHT22;5446;50.826;4.380;2022-09-09T14:49:36;20.30;99.90
10788;DHT22;5446;50.826;4.380;2022-09-09T14:52:03;20.50;99.90
10788;DHT22;5446;50.826;4.380;2022-09-09T14:54:30;20.60;99.90
10788;DHT22;5446;50.826;4.380;2022-09-09T14:56:56;20.60;99.90
10788;DHT22;5446;50.826;4.380;2022-09-09T14:59:23;20.60;99.90
10788;DHT22;5446;50.826;4.380;2022-09-09T15:01:49;20.80;99.90
10788;DHT22;5446;50.826;4.380;2022-09-09T15:04:14;20.80;99.90
10788;DHT22;5446;50.826;4.380;2022-09-09T15:06:40;20.70;99.90
10788;DHT22;5446;50.826;4.380;2022-09-09T15:09:08;20.70;99.90
10788;DHT22;5446;50.826;4.380;2022-09-09T15:11:35;20.70;99.90
10788;DHT22;5446;50.826;4.380;2022-09-09T15:14:06;20.70;99.90
10788;DHT22;5446;50.826;4.380;2022-09-09T15:16:32;20.60;99.90
10788;DHT22;5446;50.826;4.380;2022-09-09T15:18:59;20.70;99.90
10788;DHT22;5446;50.826;4.380;2022-09-09T15:21:27;20.80;99.90
10788;DHT22;5446;50.826;4.380;2022-09-09T15:23:54;20.70;99.90
10788;DHT22;5446;50.826;4.380;2022-09-09T15:26:21;20.80;99.90
10788;DHT22;5446;50.826;4.380;2022-09-09T15:28:47;20.70;99.90
10788;DHT22;5446;50.826;4.380;2022-09-09T15:31:17;20.50;99.90
10788;DHT22;5446;50.826;4.380;2022-09-09T15:36:20;20.40;99.90
10788;DHT22;5446;50.826;4.380;2022-09-09T15:38:47;20.20;99.90
10788;DHT22;5446;50.826;4.380;2022-09-09T15:41:13;20.20;99.90
10788;DHT22;5446;50.826;4.380;2022-09-09T15:43:46;20.00;99.90
10788;DHT22;5446;50.826;4.380;2022-09-09T15:46:32;20.20;99.90
10788;DHT22;5446;50.826;4.380;2022-09-09T15:49:13;20.30;99.90
10788;DHT22;5446;50.826;4.380;2022-09-09T15:51:44;20.30;99.90
10788;DHT22;5446;50.826;4.380;2022-09-09T15:54:12;20.50;99.90
10788;DHT22;5446;50.826;4.380;2022-09-09T15:56:38;20.50;99.90
10788;DHT22;5446;50.826;4.380;2022-09-09T15:59:04;20.70;99.90
10788;DHT22;5446;50.826;4.380;2022-09-09T16:01:30;20.50;99.90
10788;DHT22;5446;50.826;4.380;2022-09-09T16:03:57;20.50;99.90
10788;DHT22;5446;50.826;4.380;2022-09-09T16:06:24;20.30;99.90
10788;DHT22;5446;50.826;4.380;2022-09-09T16:08:51;20.00;99.90
10788;DHT22;5446;50.826;4.380;2022-09-09T16:11:23;20.10;99.90
10788;DHT22;5446;50.826;4.380;2022-09-09T16:13:50;19.80;99.90
10788;DHT22;5446;50.826;4.380;2022-09-09T16:16:19;19.90;99.90
10788;DHT22;5446;50.826;4.380;2022-09-09T16:18:53;19.70;99.90
10788;DHT22;5446;50.826;4.380;2022-09-09T16:21:30;19.60;99.90
10788;DHT22;5446;50.826;4.380;2022-09-09T16:23:57;19.60;99.90
10788;DHT22;5446;50.826;4.380;2022-09-09T16:26:25;19.50;99.90
10788;DHT22;5446;50.826;4.380;2022-09-09T16:28:51;19.50;99.90
10788;DHT22;5446;50.826;4.380;2022-09-09T16:31:21;19.10;99.90
10788;DHT22;5446;50.826;4.380;2022-09-09T16:33:47;18.50;99.90
10788;DHT22;5446;50.826;4.380;2022-09-09T16:36:16;18.40;99.90
10788;DHT22;5446;50.826;4.380;2022-09-09T16:38:43;18.30;99.90
10788;DHT22;5446;50.826;4.380;2022-09-09T16:41:10;18.60;99.90
10788;DHT22;5446;50.826;4.380;2022-09-09T16:43:36;19.00;99.90
10788;DHT22;5446;50.826;4.380;2022-09-09T16:46:03;18.90;99.90
10788;DHT22;5446;50.826;4.380;2022-09-09T16:48:35;19.30;99.90
10788;DHT22;5446;50.826;4.380;2022-09-09T16:51:03;19.90;99.90
10788;DHT22;5446;50.826;4.380;2022-09-09T16:53:31;19.60;99.90
10788;DHT22;5446;50.826;4.380;2022-09-09T16:55:57;19.30;99.90
10788;DHT22;5446;50.826;4.380;2022-09-09T16:58:23;19.10;99.90
10788;DHT22;5446;50.826;4.380;2022-09-09T17:00:48;18.80;99.90
10788;DHT22;5446;50.826;4.380;2022-09-09T17:03:14;18.70;99.90
10788;DHT22;5446;50.826;4.380;2022-09-09T17:05:40;18.50;99.90
10788;DHT22;5446;50.826;4.380;2022-09-09T17:08:06;18.40;99.90
10788;DHT22;5446;50.826;4.380;2022-09-09T17:10:32;18.30;99.90
10788;DHT22;5446;50.826;4.380;2022-09-09T17:12:58;18.10;99.90
10788;DHT22;5446;50.826;4.380;2022-09-09T17:15:23;18.00;99.90
10788;DHT22;5446;50.826;4.380;2022-09-09T17:17:50;18.00;99.90
10788;DHT22;5446;50.826;4.380;2022-09-09T17:20:18;18.00;99.90
10788;DHT22;5446;50.826;4.380;2022-09-09T17:22:44;18.00;99.90
10788;DHT22;5446;50.826;4.380;2022-09-09T17:25:10;18.00;99.90
10788;DHT22;5446;50.826;4.380;2022-09-09T17:27:36;18.00;99.90
10788;DHT22;5446;50.826;4.380;2022-09-09T17:30:03;18.00;99.90
10788;DHT22;5446;50.826;4.380;2022-09-09T17:32:28;18.10;99.90
10788;DHT22;5446;50.826;4.380;2022-09-09T17:34:55;18.00;99.90
10788;DHT22;5446;50.826;4.380;2022-09-09T17:37:21;18.00;99.90
10788;DHT22;5446;50.826;4.380;2022-09-09T17:39:47;18.00;99.90
10788;DHT22;5446;50.826;4.380;2022-09-09T17:42:12;17.90;99.90
10788;DHT22;5446;50.826;4.380;2022-09-09T17:44:39;17.90;99.90
10788;DHT22;5446;50.826;4.380;2022-09-09T17:47:07;17.90;99.90
10788;DHT22;5446;50.826;4.380;2022-09-09T17:49:33;17.80;99.90
10788;DHT22;5446;50.826;4.380;2022-09-09T17:51:59;17.80;99.90
10788;DHT22;5446;50.826;4.380;2022-09-09T17:54:24;17.70;99.90
10788;DHT22;5446;50.826;4.380;2022-09-09T17:56:50;17.70;99.90
10788;DHT22;5446;50.826;4.380;2022-09-09T17:59:17;17.70;99.90
10788;DHT22;5446;50.826;4.380;2022-09-09T18:01:46;17.60;99.90
10788;DHT22;5446;50.826;4.380;2022-09-09T18:04:14;17.60;99.90
10788;DHT22;5446;50.826;4.380;2022-09-09T18:06:43;17.50;99.90
10788;DHT22;5446;50.826;4.380;2022-09-09T18:09:12;17.50;99.90
10788;DHT22;5446;50.826;4.380;2022-09-09T18:11:44;17.50;99.90
10788;DHT22;5446;50.826;4.380;2022-09-09T18:14:12;17.50;99.90
10788;DHT22;5446;50.826;4.380;2022-09-09T18:16:39;17.50;99.90
10788;DHT22;5446;50.826;4.380;2022-09-09T18:19:07;17.50;99.90
10788;DHT22;5446;50.826;4.380;2022-09-09T18:21:34;17.40;99.90
10788;DHT22;5446;50.826;4.380;2022-09-09T18:24:02;17.40;99.90
10788;DHT22;5446;50.826;4.380;2022-09-09T18:26:28;17.40;99.90
10788;DHT22;5446;50.826;4.380;2022-09-09T18:28:56;17.30;99.90
10788;DHT22;5446;50.826;4.380;2022-09-09T18:31:24;17.40;99.90
10788;DHT22;5446;50.826;4.380;2022-09-09T18:33:52;17.30;99.90